Terminal Aerodrome Forecast
Issued by NWS Houston/Galveston, TX

Home | Current Version | Previous Version | Text Only | Print | Product List | Glossary On
Versions: 1 2 3 4 5 6 7 8 9 10 11 12 13 14 15 16 17 18 19 20 21 22 23 24
000
FTUS44 KHGX 241136
TAFCLL
TAF
KCLL 241136Z 2412/2512 16011KT P6SM VCSH BKN019 OVC070
     FM241700 17012G20KT P6SM OVC012
     FM242100 21010KT P6SM VCTS BKN020CB
     FM250100 27005KT P6SM VCSH BKN050 OVC100
     FM250600 33005KT P6SM OVC250=

USA.gov is the U.S. government's official web portal to all federal, state and local government web resources and services.